createdAt,value
2019-02-02T00:01:51.063Z,20.57
2019-02-02T00:04:20.223Z,15.97
2019-02-02T00:06:49.379Z,22.13
2019-02-02T00:09:18.522Z,15.53
2019-02-02T00:11:47.634Z,14.90
2019-02-02T00:14:16.795Z,17.07
2019-02-02T00:16:45.952Z,16.67
2019-02-02T00:19:15.007Z,14.57
2019-02-02T00:21:44.237Z,15.37
2019-02-02T00:24:13.576Z,17.43
2019-02-02T00:26:42.690Z,19.07
2019-02-02T00:29:11.920Z,19.07
2019-02-02T00:31:41.218Z,19.73
2019-02-02T00:34:10.397Z,14.93
2019-02-02T00:36:39.873Z,17.73
2019-02-02T00:39:10.822Z,14.63
2019-02-02T00:41:39.990Z,17.43
2019-02-02T00:44:09.236Z,10.73
2019-02-02T00:46:38.296Z,13.70
2019-02-02T00:49:07.464Z,16.63
2019-02-02T00:51:36.753Z,20.13
2019-02-02T00:54:06.136Z,16.20
2019-02-02T00:56:35.239Z,16.63
2019-02-02T00:59:04.676Z,16.73
2019-02-02T01:01:33.864Z,19.23
2019-02-02T01:04:03.503Z,20.73
2019-02-02T01:06:32.757Z,20.40
2019-02-02T01:09:02.066Z,13.57
2019-02-02T01:11:31.430Z,16.23
2019-02-02T01:14:00.467Z,14.53
2019-02-02T01:16:29.668Z,17.40
2019-02-02T01:18:58.726Z,16.53
2019-02-02T01:21:28.007Z,14.57
2019-02-02T01:23:57.153Z,15.27
2019-02-02T01:26:26.093Z,16.07
2019-02-02T01:28:55.322Z,16.60
2019-02-02T01:31:24.602Z,16.93
2019-02-02T01:33:53.800Z,14.63
2019-02-02T01:36:22.919Z,17.20
2019-02-02T01:38:52.023Z,17.40
2019-02-02T01:41:21.259Z,16.37
2019-02-02T01:43:52.535Z,15.17
2019-02-02T01:46:21.699Z,13.57
2019-02-02T01:48:51.048Z,14.73
2019-02-02T01:51:20.349Z,14.20
2019-02-02T01:53:49.706Z,13.43
2019-02-02T01:56:18.820Z,14.60
2019-02-02T01:58:47.875Z,13.70
2019-02-02T02:01:16.943Z,17.47
2019-02-02T02:03:46.035Z,15.43
2019-02-02T02:06:15.383Z,19.23
2019-02-02T02:08:44.431Z,15.17
2019-02-02T02:11:13.694Z,12.73
2019-02-02T02:13:42.856Z,13.70
2019-02-02T02:16:12.005Z,14.87
2019-02-02T02:18:43.090Z,11.40
2019-02-02T02:21:12.353Z,11.67
2019-02-02T02:23:42.334Z,18.90
2019-02-02T02:26:11.431Z,12.67
2019-02-02T02:28:40.763Z,13.80
2019-02-02T02:31:09.965Z,12.30
2019-02-02T02:33:39.099Z,10.83
2019-02-02T02:36:08.273Z,11.17
2019-02-02T02:38:37.427Z,14.40
2019-02-02T02:41:06.511Z,15.30
2019-02-02T02:43:35.644Z,20.07
2019-02-02T02:46:04.672Z,19.60
2019-02-02T02:48:34.237Z,12.70
2019-02-02T02:51:03.352Z,12.43
2019-02-02T02:53:32.524Z,21.57
2019-02-02T02:56:01.607Z,16.30
2019-02-02T02:58:41.016Z,14.83
2019-02-02T03:01:01.538Z,13.63
2019-02-02T03:03:30.538Z,16.10
2019-02-02T03:05:59.596Z,17.00
2019-02-02T03:08:32.985Z,13.50
2019-02-02T03:11:02.187Z,16.17
2019-02-02T03:13:31.336Z,17.07
2019-02-02T03:16:00.351Z,13.60
2019-02-02T03:18:29.483Z,15.63
2019-02-02T03:20:58.624Z,14.57
2019-02-02T03:23:27.723Z,14.77
2019-02-02T03:25:56.788Z,15.57
2019-02-02T03:28:25.892Z,16.77
2019-02-02T03:30:55.003Z,15.63
2019-02-02T03:33:24.074Z,18.77
2019-02-02T03:35:53.303Z,21.80
2019-02-02T03:38:22.428Z,18.17
2019-02-02T03:40:51.599Z,15.50
2019-02-02T03:43:20.727Z,19.17
2019-02-02T03:45:49.907Z,15.90
2019-02-02T03:48:19.065Z,20.07
2019-02-02T03:50:48.260Z,18.73
2019-02-02T03:53:17.415Z,17.60
2019-02-02T03:55:46.643Z,15.80
2019-02-02T03:58:15.787Z,18.83
2019-02-02T04:00:45.026Z,15.93
2019-02-02T04:03:14.227Z,17.33
2019-02-02T04:05:43.627Z,20.40
2019-02-02T04:08:12.760Z,13.63
2019-02-02T04:10:41.981Z,14.60
2019-02-02T04:13:11.112Z,16.50
2019-02-02T04:15:40.216Z,17.27
2019-02-02T04:18:09.440Z,16.73
2019-02-02T04:20:38.533Z,15.50
2019-02-02T04:23:07.761Z,13.60
2019-02-02T04:25:37.185Z,13.53
2019-02-02T04:28:06.353Z,19.00
2019-02-02T04:30:35.629Z,18.37
2019-02-02T04:33:04.783Z,21.93
2019-02-02T04:35:33.819Z,16.40
2019-02-02T04:38:02.918Z,15.60
2019-02-02T04:40:31.995Z,16.13
2019-02-02T04:43:01.880Z,19.43
2019-02-02T04:45:31.083Z,18.27
2019-02-02T04:48:00.168Z,18.17
2019-02-02T04:50:29.309Z,16.33
2019-02-02T04:52:58.324Z,18.77
2019-02-02T04:55:27.440Z,17.10
2019-02-02T04:57:56.552Z,17.77
2019-02-02T05:00:26.850Z,18.63
2019-02-02T05:02:55.993Z,20.63
2019-02-02T05:05:25.140Z,15.73
2019-02-02T05:07:54.360Z,15.90
2019-02-02T05:10:23.633Z,16.20
2019-02-02T05:12:52.951Z,19.60
2019-02-02T05:15:22.119Z,19.80
2019-02-02T05:17:51.755Z,13.47
2019-02-02T05:20:20.910Z,16.50
2019-02-02T05:22:50.131Z,13.37
2019-02-02T05:25:19.358Z,18.53
2019-02-02T05:27:48.582Z,20.97
2019-02-02T05:30:23.249Z,16.50
2019-02-02T05:32:52.490Z,16.43
2019-02-02T05:35:21.719Z,20.07
2019-02-02T05:37:50.813Z,14.10
2019-02-02T05:40:20.148Z,15.10
2019-02-02T05:42:49.435Z,21.90
2019-02-02T05:45:20.195Z,18.20
2019-02-02T05:47:49.423Z,17.90
2019-02-02T05:50:20.609Z,21.53
2019-02-02T05:52:49.821Z,17.77
2019-02-02T05:55:19.318Z,19.57
2019-02-02T05:57:48.513Z,19.13
2019-02-02T06:00:50.039Z,21.47
2019-02-02T06:03:19.080Z,17.97
2019-02-02T06:05:48.524Z,17.27
2019-02-02T06:08:17.701Z,17.60
2019-02-02T06:10:46.867Z,17.33
2019-02-02T06:13:15.947Z,19.13
2019-02-02T06:15:45.068Z,14.83
2019-02-02T06:18:14.182Z,14.67
2019-02-02T06:20:43.402Z,19.80
2019-02-02T06:23:12.586Z,25.80
2019-02-02T06:25:41.878Z,19.43
2019-02-02T06:28:11.079Z,15.20
2019-02-02T06:30:46.176Z,23.93
2019-02-02T06:33:15.441Z,19.27
2019-02-02T06:35:44.504Z,21.13
2019-02-02T06:38:13.535Z,23.20
2019-02-02T06:40:42.954Z,15.17
2019-02-02T06:43:12.231Z,23.80
2019-02-02T06:45:41.441Z,20.33
2019-02-02T06:48:10.695Z,14.80
2019-02-02T06:50:39.724Z,13.93
2019-02-02T06:53:08.891Z,20.73
2019-02-02T06:55:37.908Z,15.03
2019-02-02T06:58:07.067Z,23.07
2019-02-02T07:00:36.219Z,25.50
2019-02-02T07:03:05.513Z,19.47
2019-02-02T07:05:34.689Z,22.43
2019-02-02T07:08:03.712Z,23.63
2019-02-02T07:10:32.843Z,16.20
2019-02-02T07:13:01.866Z,16.47
2019-02-02T07:15:30.971Z,24.93
2019-02-02T07:18:00.114Z,21.63
2019-02-02T07:20:29.284Z,24.30
2019-02-02T07:22:58.530Z,20.73
2019-02-02T07:25:27.751Z,22.80
2019-02-02T07:27:56.859Z,21.33
2019-02-02T07:30:29.069Z,21.33
2019-02-02T07:32:57.096Z,22.77
2019-02-02T07:35:26.263Z,15.83
2019-02-02T07:37:55.318Z,23.00
2019-02-02T07:40:24.588Z,21.77
2019-02-02T07:42:53.865Z,22.73
2019-02-02T07:45:28.261Z,23.07
2019-02-02T07:47:57.470Z,22.77
2019-02-02T07:50:26.619Z,25.53
2019-02-02T07:52:55.928Z,21.40
2019-02-02T07:55:25.594Z,19.60
2019-02-02T07:57:54.634Z,32.60
2019-02-02T08:00:40.371Z,21.97
2019-02-02T08:03:00.288Z,18.20
2019-02-02T08:05:29.430Z,15.63
2019-02-02T08:07:58.618Z,21.20
2019-02-02T08:10:27.839Z,25.17
2019-02-02T08:12:57.067Z,19.10
2019-02-02T08:15:28.385Z,21.03
2019-02-02T08:17:57.563Z,19.73
2019-02-02T08:20:26.793Z,17.80
2019-02-02T08:22:56.603Z,21.13
2019-02-02T08:25:26.164Z,22.20
2019-02-02T08:27:55.351Z,22.93
2019-02-02T08:30:26.734Z,19.60
2019-02-02T08:32:55.847Z,29.60
2019-02-02T08:35:25.001Z,27.67
2019-02-02T08:37:54.469Z,20.90
2019-02-02T08:40:23.832Z,21.73
2019-02-02T08:42:53.098Z,16.60
2019-02-02T08:45:22.408Z,20.17
2019-02-02T08:47:51.517Z,23.83
2019-02-02T08:50:29.192Z,21.63
2019-02-02T08:52:58.383Z,24.17
2019-02-02T08:55:27.496Z,24.03
2019-02-02T08:57:56.678Z,19.63
2019-02-02T09:00:25.934Z,23.77
2019-02-02T09:02:55.111Z,21.10
2019-02-02T09:05:24.672Z,22.30
2019-02-02T09:07:54.948Z,18.67
2019-02-02T09:10:25.791Z,23.23
2019-02-02T09:12:55.067Z,17.07
2019-02-02T09:15:24.344Z,16.70
2019-02-02T09:17:53.556Z,17.83
2019-02-02T09:20:22.721Z,17.00
2019-02-02T09:23:03.906Z,24.30
2019-02-02T09:25:24.957Z,22.80
2019-02-02T09:27:54.231Z,24.17
2019-02-02T09:30:25.667Z,22.83
2019-02-02T09:32:55.080Z,22.47
2019-02-02T09:35:24.222Z,23.97
2019-02-02T09:37:53.557Z,27.93
2019-02-02T09:40:25.473Z,17.63
2019-02-02T09:42:54.708Z,23.77
2019-02-02T09:45:24.299Z,23.03
2019-02-02T09:47:53.682Z,24.33
2019-02-02T09:50:23.903Z,24.07
2019-02-02T09:52:56.448Z,25.40
2019-02-02T09:55:28.767Z,21.43
2019-02-02T09:58:00.958Z,20.37
2019-02-02T10:00:31.507Z,23.60
2019-02-02T10:03:02.186Z,24.63
2019-02-02T10:05:31.640Z,22.20
2019-02-02T10:08:00.682Z,18.53
2019-02-02T10:10:31.615Z,21.27
2019-02-02T10:13:01.209Z,17.07
2019-02-02T10:15:30.439Z,18.20
2019-02-02T10:17:59.627Z,20.87
2019-02-02T10:20:29.760Z,20.57
2019-02-02T10:22:59.528Z,21.40
2019-02-02T10:25:30.047Z,22.67
2019-02-02T10:27:59.196Z,23.77
2019-02-02T10:30:33.441Z,25.50
2019-02-02T10:33:02.785Z,23.93
2019-02-02T10:35:32.047Z,19.30
2019-02-02T10:38:01.214Z,22.07
2019-02-02T10:40:30.508Z,23.13
2019-02-02T10:42:59.626Z,24.13
2019-02-02T10:45:28.933Z,32.80
2019-02-02T10:47:58.437Z,25.43
2019-02-02T10:50:27.952Z,28.20
2019-02-02T10:52:57.004Z,22.20
2019-02-02T10:55:26.225Z,25.77
2019-02-02T10:57:55.489Z,27.07
2019-02-02T11:00:30.035Z,26.40
2019-02-02T11:02:59.384Z,28.27
2019-02-02T11:05:31.406Z,25.40
2019-02-02T11:08:01.413Z,30.70
2019-02-02T11:10:31.298Z,21.40
2019-02-02T11:13:00.655Z,28.07
2019-02-02T11:15:29.908Z,28.73
2019-02-02T11:17:59.593Z,30.23
2019-02-02T11:20:49.545Z,23.37
2019-02-02T11:23:19.865Z,27.87
2019-02-02T11:25:49.096Z,24.47
2019-02-02T11:28:18.539Z,32.73
2019-02-02T11:30:47.699Z,21.60
2019-02-02T11:33:17.028Z,24.03
2019-02-02T11:35:46.186Z,25.37
2019-02-02T11:38:15.562Z,23.83
2019-02-02T11:40:44.907Z,28.20
2019-02-02T11:43:14.095Z,31.53
2019-02-02T11:45:43.326Z,29.43
2019-02-02T11:48:14.975Z,30.43
2019-02-02T11:50:43.299Z,30.70
2019-02-02T11:53:12.643Z,29.07
2019-02-02T11:55:42.324Z,24.73
2019-02-02T11:58:11.482Z,37.93
2019-02-02T12:00:42.180Z,24.20
2019-02-02T12:03:11.754Z,32.83
2019-02-02T12:05:41.121Z,26.33
2019-02-02T12:08:12.724Z,30.10
2019-02-02T12:10:41.948Z,22.93
2019-02-02T12:13:11.108Z,37.30
2019-02-02T12:15:40.732Z,32.33
2019-02-02T12:18:11.900Z,25.83
2019-02-02T12:20:45.589Z,29.43
2019-02-02T12:23:16.619Z,32.57
2019-02-02T12:25:47.630Z,30.87
2019-02-02T12:28:17.507Z,29.00
2019-02-02T12:31:01.843Z,34.87
2019-02-02T12:33:29.328Z,33.50
2019-02-02T12:35:58.673Z,27.93
2019-02-02T12:38:28.098Z,37.43
2019-02-02T12:40:59.742Z,28.50
2019-02-02T12:43:29.527Z,34.07
2019-02-02T12:45:59.285Z,32.33
2019-02-02T12:48:28.744Z,36.97
2019-02-02T12:51:00.490Z,52.63
2019-02-02T12:53:29.652Z,29.97
2019-02-02T12:55:58.932Z,35.30
2019-02-02T12:58:28.232Z,36.10
2019-02-02T13:00:57.855Z,28.37
2019-02-02T13:03:27.001Z,32.73
2019-02-02T13:05:56.125Z,37.40
2019-02-02T13:08:26.504Z,36.57
2019-02-02T13:11:14.994Z,30.23
2019-02-02T13:13:46.134Z,34.80
2019-02-02T13:16:15.256Z,33.33
2019-02-02T13:18:44.480Z,35.97
2019-02-02T13:21:13.495Z,33.03
2019-02-02T13:23:42.636Z,27.50
2019-02-02T13:26:11.783Z,37.20
2019-02-02T13:28:41.042Z,30.97
2019-02-02T13:31:10.251Z,30.80
2019-02-02T13:33:39.387Z,33.40
2019-02-02T13:36:09.139Z,33.60
2019-02-02T13:38:38.240Z,31.20
2019-02-02T13:41:07.498Z,35.80
2019-02-02T13:43:36.640Z,36.37
2019-02-02T13:46:05.886Z,38.80
2019-02-02T13:48:34.943Z,33.23
2019-02-02T13:51:06.174Z,34.20
2019-02-02T13:53:35.487Z,31.10
2019-02-02T13:56:04.610Z,41.20
2019-02-02T13:58:33.819Z,32.03
2019-02-02T14:01:03.068Z,33.90
2019-02-02T14:03:32.232Z,23.70
2019-02-02T14:06:01.431Z,34.27
2019-02-02T14:08:30.678Z,32.53
2019-02-02T14:10:59.907Z,34.10
2019-02-02T14:13:48.344Z,32.00
2019-02-02T14:16:17.567Z,28.43
2019-02-02T14:18:46.771Z,42.57
2019-02-02T14:21:15.816Z,31.77
2019-02-02T14:26:34.561Z,42.97
2019-02-02T14:29:04.237Z,39.03
2019-02-02T14:31:33.529Z,38.43
2019-02-02T14:34:02.736Z,36.87
2019-02-02T14:36:31.764Z,35.50
2019-02-02T14:39:00.879Z,36.97
2019-02-02T14:41:29.915Z,36.43
2019-02-02T14:43:59.104Z,37.37
2019-02-02T14:46:28.366Z,34.73
2019-02-02T14:48:57.563Z,37.57
2019-02-02T14:51:26.575Z,27.77
2019-02-02T14:54:00.961Z,35.27
2019-02-02T14:56:30.199Z,36.83
2019-02-02T14:58:59.283Z,33.77
2019-02-02T15:01:28.580Z,38.93
2019-02-02T15:03:57.795Z,34.17
2019-02-02T15:06:28.425Z,35.83
2019-02-02T15:08:57.658Z,40.27
2019-02-02T15:11:27.043Z,35.83
2019-02-02T15:16:51.707Z,35.17
2019-02-02T15:19:23.715Z,37.20
2019-02-02T15:21:52.775Z,35.10
2019-02-02T15:24:21.955Z,44.50
2019-02-02T15:26:51.023Z,35.20
2019-02-02T15:29:20.196Z,43.90
2019-02-02T15:31:49.325Z,38.27
2019-02-02T15:34:18.502Z,32.60
2019-02-02T15:36:47.611Z,42.37
2019-02-02T15:39:16.829Z,36.03
2019-02-02T15:41:52.563Z,30.80
2019-02-02T15:44:18.097Z,35.97
2019-02-02T15:46:49.774Z,36.03
2019-02-02T15:49:18.936Z,37.47
2019-02-02T15:51:48.044Z,39.63
2019-02-02T15:54:17.497Z,42.33
2019-02-02T15:56:46.924Z,45.83
2019-02-02T15:59:16.183Z,44.13
2019-02-02T16:01:45.469Z,37.47
2019-02-02T16:04:14.747Z,42.03
2019-02-02T16:06:44.099Z,35.27
2019-02-02T16:09:13.238Z,39.07
2019-02-02T16:11:42.592Z,32.43
2019-02-02T16:14:11.758Z,42.60
2019-02-02T16:16:41.082Z,35.70
2019-02-02T16:19:10.359Z,59.55
2019-02-02T16:21:39.814Z,38.93
2019-02-02T16:24:08.994Z,36.73
2019-02-02T16:26:38.020Z,45.80
2019-02-02T16:29:07.153Z,45.07
2019-02-02T16:31:36.339Z,38.87
2019-02-02T16:34:05.777Z,39.13
2019-02-02T16:36:34.892Z,41.63
2019-02-02T16:39:06.313Z,43.07
2019-02-02T16:41:35.359Z,47.07
2019-02-02T16:44:06.085Z,52.73
2019-02-02T16:46:35.265Z,40.23
2019-02-02T16:49:04.775Z,40.03
2019-02-02T16:51:34.074Z,38.73
2019-02-02T16:54:03.350Z,37.13
2019-02-02T16:56:32.526Z,36.73
2019-02-02T16:59:01.660Z,41.53
2019-02-02T17:01:31.323Z,46.77
2019-02-02T17:04:02.911Z,43.37
2019-02-02T17:06:31.180Z,43.47
2019-02-02T17:09:00.620Z,33.47
2019-02-02T17:11:29.840Z,45.70
2019-02-02T17:13:58.955Z,48.87
2019-02-02T17:16:28.138Z,39.47
2019-02-02T17:18:57.424Z,48.07
2019-02-02T17:21:29.039Z,48.40
2019-02-02T17:23:57.621Z,67.30
2019-02-02T17:26:26.825Z,32.93
2019-02-02T17:28:56.051Z,37.30
2019-02-02T17:31:25.224Z,47.08
2019-02-02T17:33:56.211Z,48.00
2019-02-02T17:36:25.760Z,44.93
2019-02-02T17:38:55.108Z,50.20
2019-02-02T17:41:24.272Z,36.93
2019-02-02T17:43:53.803Z,40.13
2019-02-02T17:46:23.223Z,45.53
2019-02-02T17:48:54.404Z,37.90
2019-02-02T17:51:24.705Z,48.23
2019-02-02T17:53:54.107Z,40.27
2019-02-02T17:56:23.413Z,42.43
2019-02-02T17:58:52.766Z,39.67
2019-02-02T18:01:22.220Z,42.37
2019-02-02T18:03:51.439Z,46.10
2019-02-02T18:06:23.737Z,47.07
2019-02-02T18:08:53.012Z,45.03
2019-02-02T18:11:22.262Z,47.50
2019-02-02T18:13:51.519Z,45.63
2019-02-02T18:16:20.791Z,42.43
2019-02-02T18:18:50.032Z,40.47
2019-02-02T18:21:19.535Z,39.03
2019-02-02T18:23:48.970Z,46.20
2019-02-02T18:26:18.163Z,43.93
2019-02-02T18:28:50.219Z,52.57
2019-02-02T18:31:22.399Z,49.20
2019-02-02T18:36:46.055Z,46.03
2019-02-02T18:39:15.217Z,41.43
2019-02-02T18:41:45.809Z,42.53
2019-02-02T18:44:30.098Z,40.87
2019-02-02T18:46:59.426Z,42.97
2019-02-02T18:49:31.824Z,44.47
2019-02-02T18:52:20.371Z,65.20
2019-02-02T18:54:49.506Z,45.43
2019-02-02T18:57:19.108Z,52.30
2019-02-02T18:59:51.894Z,42.77
2019-02-02T19:02:21.390Z,44.60
2019-02-02T19:05:02.899Z,50.07
2019-02-02T19:07:23.745Z,43.73
2019-02-02T19:09:53.200Z,43.77
2019-02-02T19:12:22.504Z,78.92
2019-02-02T19:14:51.814Z,34.23
2019-02-02T19:17:21.065Z,58.80
2019-02-02T19:19:50.265Z,57.53
2019-02-02T19:22:19.564Z,53.43
2019-02-02T19:24:49.975Z,47.33
2019-02-02T19:27:19.141Z,48.43
2019-02-02T19:29:48.296Z,42.50
2019-02-02T19:32:17.645Z,38.83
2019-02-02T19:34:46.968Z,43.63
2019-02-02T19:37:16.329Z,39.23
2019-02-02T19:39:45.691Z,42.10
2019-02-02T19:42:14.914Z,36.90
2019-02-02T19:44:44.275Z,37.63
2019-02-02T19:47:16.223Z,36.03
2019-02-02T19:49:44.531Z,47.80
2019-02-02T19:52:13.769Z,38.33
2019-02-02T19:54:43.026Z,47.60
2019-02-02T19:57:12.386Z,42.60
2019-02-02T19:59:41.796Z,40.87
2019-02-02T20:02:11.010Z,40.20
2019-02-02T20:04:40.212Z,49.30
2019-02-02T20:07:09.545Z,34.90
2019-02-02T20:09:38.768Z,36.03
2019-02-02T20:12:09.151Z,43.03
2019-02-02T20:14:38.608Z,39.43
2019-02-02T20:17:07.895Z,37.83
2019-02-02T20:19:37.118Z,40.33
2019-02-02T20:22:06.304Z,38.70
2019-02-02T20:24:35.479Z,40.37
2019-02-02T20:27:05.619Z,32.47
2019-02-02T20:29:34.937Z,36.77
2019-02-02T20:32:04.109Z,44.30
2019-02-02T20:34:34.131Z,38.07
2019-02-02T20:37:09.695Z,42.87
2019-02-02T20:39:39.232Z,34.40
2019-02-02T20:42:08.000Z,43.10
2019-02-02T20:44:37.565Z,36.67
2019-02-02T20:47:06.827Z,40.63
2019-02-02T20:49:36.107Z,42.00
2019-02-02T20:52:05.745Z,38.10
2019-02-02T20:54:34.892Z,37.67
2019-02-02T20:57:04.239Z,38.17
2019-02-02T20:59:33.863Z,38.40
2019-02-02T21:02:03.079Z,35.57
2019-02-02T21:04:32.271Z,36.63
2019-02-02T21:07:01.582Z,39.20
2019-02-02T21:09:30.777Z,39.67
2019-02-02T21:12:00.113Z,41.17
2019-02-02T21:14:29.321Z,38.37
2019-02-02T21:16:58.555Z,42.33
2019-02-02T21:19:28.574Z,39.40
2019-02-02T21:21:57.670Z,39.13
2019-02-02T21:24:27.252Z,40.27
2019-02-02T21:26:56.699Z,43.07
2019-02-02T21:29:25.746Z,45.13
2019-02-02T21:31:55.576Z,41.20
2019-02-02T21:34:24.858Z,40.53
2019-02-02T21:36:54.485Z,37.87
2019-02-02T21:39:23.696Z,36.67
2019-02-02T21:41:52.870Z,39.43
2019-02-02T21:44:22.123Z,39.10
2019-02-02T21:46:51.395Z,37.17
2019-02-02T21:49:20.677Z,36.73
2019-02-02T21:51:50.047Z,37.27
2019-02-02T21:54:19.276Z,35.80
2019-02-02T21:56:48.516Z,40.37
2019-02-02T21:59:18.306Z,38.40
2019-02-02T22:01:47.478Z,40.63
2019-02-02T22:04:16.617Z,33.03
2019-02-02T22:06:45.744Z,39.83
2019-02-02T22:09:14.889Z,37.83
2019-02-02T22:11:44.107Z,37.23
2019-02-02T22:14:13.319Z,36.93
2019-02-02T22:16:42.554Z,34.90
2019-02-02T22:19:11.795Z,36.10
2019-02-02T22:21:41.310Z,31.07
2019-02-02T22:24:10.675Z,33.17
2019-02-02T22:26:40.132Z,30.23
2019-02-02T22:29:09.359Z,33.10
2019-02-02T22:31:38.648Z,51.95
2019-02-02T22:34:08.004Z,32.70
2019-02-02T22:36:37.268Z,26.13
2019-02-02T22:39:08.428Z,23.90
2019-02-02T22:41:38.742Z,33.23
2019-02-02T22:44:08.394Z,24.83
2019-02-02T22:46:37.541Z,29.83
2019-02-02T22:49:08.703Z,24.67
2019-02-02T22:51:38.247Z,21.10
2019-02-02T22:54:07.601Z,33.33
2019-02-02T22:56:36.989Z,30.80
2019-02-02T22:59:06.668Z,24.60
2019-02-02T23:02:04.815Z,28.90
2019-02-02T23:08:32.936Z,27.87
2019-02-02T23:11:24.375Z,37.13
2019-02-02T23:14:20.028Z,34.60
2019-02-02T23:16:49.107Z,20.97
2019-02-02T23:19:18.231Z,28.77
2019-02-02T23:21:47.291Z,32.17
2019-02-02T23:24:16.534Z,30.10
2019-02-02T23:27:08.844Z,42.13
2019-02-02T23:29:37.919Z,31.33
2019-02-02T23:32:07.434Z,31.80
2019-02-02T23:34:36.661Z,22.10
2019-02-02T23:37:05.997Z,20.63
2019-02-02T23:39:37.313Z,25.73
2019-02-02T23:42:06.487Z,30.07
2019-02-02T23:44:35.699Z,31.53
2019-02-02T23:47:04.719Z,24.10
2019-02-02T23:49:33.961Z,25.10
2019-02-02T23:52:03.391Z,27.10
2019-02-02T23:54:32.598Z,20.10
2019-02-02T23:57:01.974Z,30.10
2019-02-02T23:59:31.375Z,25.33
